Time;durP1;ratioP1;P1;durP2;ratioP2;P2;SDS_P1;SDS_P2;PMS_P1;PMS_P2;Temp;Humidity;BMP_temperature;BMP_pressure;BME280_temperature;BME280_humidity;BME280_pressure;Samples;Min_cycle;Max_cycle;Signal;HPM_P1;HPM_P2
2022/03/13 00:00:49;;;;;;;16.70;8.07;;;2.20;55.00;;;;;;4176410;28;20036;-78
2022/03/13 00:02:50;;;;;;;17.05;8.20;;;2.20;54.80;;;;;;4169849;28;20041;-78
2022/03/13 00:04:51;;;;;;;17.27;8.05;;;2.10;54.40;;;;;;4155997;28;20017;-78
2022/03/13 00:06:51;;;;;;;19.60;7.70;;;2.10;54.40;;;;;;4152553;28;20034;-78
2022/03/13 00:08:58;;;;;;;15.27;7.90;;;2.00;54.50;;;;;;4170146;28;20026;-78
2022/03/13 00:11:05;;;;;;;17.75;8.20;;;2.00;54.70;;;;;;4169780;28;20017;-78
2022/03/13 00:13:05;;;;;;;19.33;8.05;;;1.90;54.60;;;;;;4155957;28;20029;-78
2022/03/13 00:15:10;;;;;;;20.90;8.88;;;1.90;54.70;;;;;;4154717;28;20048;-78
2022/03/13 00:17:12;;;;;;;18.70;8.15;;;1.80;54.80;;;;;;4170015;28;20108;-78
2022/03/13 00:19:12;;;;;;;17.27;8.15;;;1.80;54.80;;;;;;4159381;28;20036;-78
2022/03/13 00:21:15;;;;;;;19.25;7.90;;;1.70;54.90;;;;;;4170023;28;20041;-78
2022/03/13 00:23:15;;;;;;;19.73;8.47;;;1.70;55.20;;;;;;4155755;28;20525;-78
2022/03/13 00:25:16;;;;;;;18.48;7.82;;;1.60;55.20;;;;;;4151841;28;20339;-78
2022/03/13 00:27:16;;;;;;;19.17;8.40;;;1.60;55.20;;;;;;4155246;28;20034;-78
2022/03/13 00:29:18;;;;;;;21.15;9.13;;;1.60;55.60;;;;;;4152270;28;20026;-78
2022/03/13 00:31:19;;;;;;;18.77;8.80;;;1.50;56.10;;;;;;4188835;28;20031;-78
2022/03/13 00:33:20;;;;;;;20.25;8.43;;;1.50;56.40;;;;;;4154903;28;20037;-79
2022/03/13 00:35:21;;;;;;;20.02;9.10;;;1.50;56.20;;;;;;4155771;28;20024;-79
2022/03/13 00:37:22;;;;;;;19.50;8.35;;;1.40;56.10;;;;;;4174609;28;20478;-79
2022/03/13 00:39:22;;;;;;;23.25;8.95;;;1.40;56.90;;;;;;4156132;28;20416;-79
2022/03/13 00:41:23;;;;;;;20.85;8.45;;;1.30;56.60;;;;;;4142580;28;20084;-79
2022/03/13 00:43:25;;;;;;;23.42;8.95;;;1.30;56.90;;;;;;4145979;28;20022;-79
2022/03/13 00:45:26;;;;;;;20.20;9.02;;;1.30;56.90;;;;;;4141920;28;20057;-79
2022/03/13 00:47:27;;;;;;;24.85;8.10;;;1.30;56.50;;;;;;4154005;28;20356;-78
2022/03/13 00:49:27;;;;;;;25.30;9.63;;;1.30;56.40;;;;;;4172707;28;20035;-78
2022/03/13 00:51:28;;;;;;;19.42;8.73;;;1.30;56.30;;;;;;4136627;28;20539;-78
2022/03/13 00:53:29;;;;;;;20.90;9.38;;;1.30;56.30;;;;;;4179950;28;20029;-78
2022/03/13 00:55:29;;;;;;;31.52;9.30;;;1.20;56.40;;;;;;4160346;28;20124;-78
2022/03/13 00:57:30;;;;;;;21.13;8.57;;;1.20;56.50;;;;;;4176014;28;20459;-78
2022/03/13 00:59:30;;;;;;;22.20;8.35;;;1.20;56.40;;;;;;4173862;28;20068;-78
2022/03/13 01:01:32;;;;;;;19.58;8.65;;;1.20;56.70;;;;;;4159714;28;20120;-78
2022/03/13 01:03:47;;;;;;;24.30;9.57;;;1.20;56.60;;;;;;4158835;28;20025;-78
2022/03/13 01:05:48;;;;;;;22.63;9.10;;;1.20;56.60;;;;;;4175873;28;20060;-78
2022/03/13 01:07:48;;;;;;;20.65;8.82;;;1.20;56.50;;;;;;4160516;28;20103;-78
2022/03/13 01:09:49;;;;;;;20.85;8.57;;;1.20;56.80;;;;;;4159468;28;20575;-78
2022/03/13 01:11:50;;;;;;;20.48;8.63;;;1.10;57.00;;;;;;4134205;28;20451;-78
2022/03/13 01:13:51;;;;;;;18.30;8.70;;;1.10;56.90;;;;;;4170522;28;20033;-78
2022/03/13 01:15:55;;;;;;;25.48;8.38;;;1.10;56.90;;;;;;4171836;28;20541;-78
2022/03/13 01:17:56;;;;;;;23.27;9.15;;;1.10;57.00;;;;;;4142449;28;20057;-78
2022/03/13 01:19:56;;;;;;;22.30;9.38;;;1.00;56.70;;;;;;4172728;28;20071;-78
2022/03/13 01:21:57;;;;;;;21.10;8.57;;;1.10;56.80;;;;;;4159859;28;20072;-78
2022/03/13 01:24:01;;;;;;;25.45;9.85;;;1.00;57.40;;;;;;4154115;28;20022;-78
2022/03/13 01:26:19;;;;;;;;;;;1.00;57.00;;;;;;4176313;28;20064;-78
2022/03/13 01:28:20;;;;;;;21.13;8.50;;;1.00;57.00;;;;;;4156868;28;19917;-78
2022/03/13 01:30:21;;;;;;;22.13;9.65;;;1.00;57.30;;;;;;4156260;28;20459;-78
2022/03/13 01:32:21;;;;;;;25.85;9.82;;;0.90;57.30;;;;;;4142168;28;20382;-78
2022/03/13 01:34:41;;;;;;;25.17;8.85;;;0.90;57.80;;;;;;4160751;28;20018;-79
2022/03/13 01:36:42;;;;;;;20.00;9.50;;;0.90;57.80;;;;;;4176235;28;20035;-78
2022/03/13 01:38:42;;;;;;;24.40;9.45;;;0.90;58.20;;;;;;4156422;28;20041;-78
2022/03/13 01:40:44;;;;;;;28.85;9.35;;;0.90;58.50;;;;;;4174346;28;20037;-78
2022/03/13 01:42:46;;;;;;;29.17;10.75;;;0.80;59.10;;;;;;4154776;28;20022;-78
2022/03/13 01:44:47;;;;;;;21.63;9.75;;;0.80;58.90;;;;;;4174877;28;20087;-78
2022/03/13 01:46:47;;;;;;;35.58;10.43;;;0.80;59.10;;;;;;4175373;28;20032;-78
2022/03/13 01:49:15;;;;;;;23.90;9.95;;;0.80;59.10;;;;;;4152288;28;20357;-78
2022/03/13 01:51:16;;;;;;;26.20;9.65;;;0.70;59.20;;;;;;4157389;28;20446;-78
2022/03/13 01:53:18;;;;;;;22.13;9.80;;;0.70;59.20;;;;;;4158358;28;20052;-78
2022/03/13 01:55:19;;;;;;;25.13;9.80;;;0.70;59.40;;;;;;4159839;28;20022;-78
2022/03/13 01:57:20;;;;;;;20.30;9.70;;;0.70;59.50;;;;;;4157308;28;20060;-78
2022/03/13 01:59:20;;;;;;;31.65;11.35;;;0.60;59.50;;;;;;4140802;28;20391;-78
2022/03/13 02:01:22;;;;;;;22.02;10.07;;;0.60;59.70;;;;;;4173188;28;20037;-77
2022/03/13 02:03:23;;;;;;;24.90;10.40;;;0.60;59.40;;;;;;4153408;28;20030;-77
2022/03/13 02:05:29;;;;;;;20.95;10.27;;;0.60;59.50;;;;;;4154803;28;20040;-77
2022/03/13 02:07:29;;;;;;;22.35;10.23;;;0.50;59.40;;;;;;4160659;28;20040;-77
2022/03/13 02:09:30;;;;;;;20.65;9.30;;;0.50;59.20;;;;;;4158558;28;20446;-77
2022/03/13 02:11:40;;;;;;;22.52;10.60;;;0.50;59.20;;;;;;4157596;28;20104;-78
2022/03/13 02:13:41;;;;;;;22.38;9.80;;;0.50;59.40;;;;;;4174989;28;20029;-78
2022/03/13 02:15:42;;;;;;;30.58;9.82;;;0.50;59.60;;;;;;4128021;28;20069;-78
2022/03/13 02:17:42;;;;;;;28.05;10.35;;;0.40;59.30;;;;;;4154821;28;20586;-77
2022/03/13 02:19:43;;;;;;;25.92;10.38;;;0.40;59.40;;;;;;4173690;28;20029;-77
2022/03/13 02:21:45;;;;;;;25.92;10.15;;;0.40;59.30;;;;;;4170864;28;20035;-78
2022/03/13 02:23:46;;;;;;;25.83;10.07;;;0.40;59.40;;;;;;4123110;28;20061;-76
2022/03/13 02:25:56;;;;;;;23.83;9.52;;;0.30;59.40;;;;;;4142679;28;20034;-77
2022/03/13 02:27:58;;;;;;;25.23;10.80;;;0.30;59.40;;;;;;4159957;28;20467;-77
2022/03/13 02:29:58;;;;;;;36.92;10.85;;;0.30;59.20;;;;;;4173352;28;20029;-77
2022/03/13 02:32:00;;;;;;;26.75;10.73;;;0.30;59.40;;;;;;4141978;28;20022;-77
2022/03/13 02:34:00;;;;;;;23.50;10.90;;;0.20;59.70;;;;;;4155829;28;20109;-77
2022/03/13 02:36:03;;;;;;;25.05;10.88;;;0.20;59.80;;;;;;4157359;28;20088;-77
2022/03/13 02:38:04;;;;;;;27.85;11.20;;;0.20;59.80;;;;;;4173307;28;20033;-77
2022/03/13 02:40:06;;;;;;;25.52;10.52;;;0.20;60.10;;;;;;4171499;28;20045;-77
2022/03/13 02:42:07;;;;;;;22.67;10.57;;;0.20;60.30;;;;;;4157862;28;20506;-77
2022/03/13 02:44:08;;;;;;;23.83;10.88;;;0.10;59.90;;;;;;4157186;28;20033;-79
2022/03/13 02:46:21;;;;;;;26.80;11.30;;;0.20;59.80;;;;;;4186266;28;20033;-79
2022/03/13 02:48:21;;;;;;;27.38;11.40;;;0.10;59.90;;;;;;4161783;28;20561;-78
2022/03/13 02:50:22;;;;;;;31.95;11.63;;;0.10;59.80;;;;;;4155497;28;20021;-79
2022/03/13 02:52:23;;;;;;;32.47;12.13;;;0.10;59.80;;;;;;4158071;28;20068;-77
2022/03/13 02:54:24;;;;;;;31.52;12.13;;;0.10;59.80;;;;;;4156540;28;20025;-77
2022/03/13 02:56:24;;;;;;;29.63;11.70;;;0.10;60.00;;;;;;4141360;28;20029;-78
2022/03/13 02:58:25;;;;;;;34.35;12.88;;;0.10;60.20;;;;;;4171405;28;20025;-77
2022/03/13 03:00:58;;;;;;;35.97;11.48;;;0.10;60.70;;;;;;4173472;28;20060;-78
2022/03/13 03:02:59;;;;;;;26.15;11.18;;;0.10;61.00;;;;;;4136279;28;20037;-77
2022/03/13 03:05:04;;;;;;;28.15;11.60;;;0.20;60.70;;;;;;4157762;28;20033;-77
2022/03/13 03:07:05;;;;;;;30.45;12.27;;;0.20;61.10;;;;;;4154050;28;20152;-77
2022/03/13 03:09:05;;;;;;;29.35;12.05;;;0.20;60.80;;;;;;4160142;28;20495;-77
2022/03/13 03:11:06;;;;;;;30.95;12.05;;;0.20;60.70;;;;;;4172606;28;20036;-77
2022/03/13 03:13:11;;;;;;;32.22;12.25;;;0.20;61.10;;;;;;4141738;28;20088;-78
2022/03/13 03:15:11;;;;;;;27.58;12.52;;;0.20;61.50;;;;;;4185859;28;20506;-78
2022/03/13 03:17:13;;;;;;;28.40;11.52;;;0.20;61.60;;;;;;4171048;28;20128;-78
2022/03/13 03:19:14;;;;;;;29.35;11.73;;;0.20;61.90;;;;;;4141348;28;20455;-78
2022/03/13 03:21:15;;;;;;;26.65;10.73;;;0.20;62.10;;;;;;4150697;28;20065;-78
2022/03/13 03:23:15;;;;;;;26.10;10.77;;;0.20;62.10;;;;;;4156995;28;20022;-78
2022/03/13 03:25:25;;;;;;;31.83;11.82;;;0.20;61.80;;;;;;4159538;28;20040;-78
2022/03/13 03:27:26;;;;;;;31.00;11.43;;;0.20;61.80;;;;;;4142425;28;20062;-77
2022/03/13 03:29:28;;;;;;;32.17;12.25;;;0.30;61.90;;;;;;4171382;28;20040;-78
2022/03/13 03:31:28;;;;;;;33.28;11.50;;;0.20;61.60;;;;;;4156445;28;20033;-78
2022/03/13 03:33:29;;;;;;;33.72;12.63;;;0.20;61.40;;;;;;4174714;28;20029;-78
2022/03/13 03:35:30;;;;;;;39.90;12.43;;;0.20;61.70;;;;;;4140536;28;20026;-78
2022/03/13 03:37:34;;;;;;;28.83;12.40;;;0.20;61.70;;;;;;4155077;28;20061;-78
2022/03/13 03:39:34;;;;;;;31.73;12.73;;;0.30;62.60;;;;;;4140163;28;20088;-78
2022/03/13 03:41:35;;;;;;;30.95;12.45;;;0.20;61.90;;;;;;4156870;28;20521;-77
2022/03/13 03:43:36;;;;;;;33.90;11.70;;;0.20;62.60;;;;;;4171634;28;20420;-78
2022/03/13 03:45:36;;;;;;;32.00;12.52;;;0.20;63.00;;;;;;4173612;28;20052;-78
2022/03/13 03:47:37;;;;;;;32.88;11.98;;;0.20;62.80;;;;;;4159127;28;20030;-77
2022/03/13 03:49:38;;;;;;;27.05;11.15;;;0.20;62.60;;;;;;4171733;28;20079;-78
2022/03/13 03:51:39;;;;;;;29.73;12.23;;;0.20;62.70;;;;;;4173482;28;20041;-78
2022/03/13 03:53:40;;;;;;;26.42;10.75;;;0.20;62.70;;;;;;4156111;28;20100;-77
2022/03/13 03:55:40;;;;;;;26.92;11.65;;;0.10;62.50;;;;;;4173677;28;20106;-78
2022/03/13 03:57:41;;;;;;;27.17;11.90;;;0.10;62.10;;;;;;4155964;28;20022;-78
2022/03/13 03:59:42;;;;;;;30.85;10.50;;;0.10;62.10;;;;;;4184155;28;20060;-78
2022/03/13 04:01:43;;;;;;;27.60;11.73;;;0.10;62.30;;;;;;4160108;28;20031;-77
2022/03/13 04:03:44;;;;;;;23.70;10.65;;;0.10;62.00;;;;;;4170099;28;20037;-78
2022/03/13 04:05:44;;;;;;;28.38;12.32;;;0.10;61.80;;;;;;4173310;28;20028;-78
2022/03/13 04:07:45;;;;;;;28.83;10.85;;;0.10;61.70;;;;;;4155628;28;20309;-79
2022/03/13 04:09:46;;;;;;;31.35;12.10;;;0.10;61.70;;;;;;4153422;28;20038;-78
2022/03/13 04:11:47;;;;;;;26.90;11.60;;;0.10;61.90;;;;;;4157820;28;20091;-78
2022/03/13 04:13:48;;;;;;;28.55;11.40;;;0.10;62.30;;;;;;4138116;28;20030;-78
2022/03/13 04:15:49;;;;;;;26.48;11.40;;;0.10;62.10;;;;;;4155651;28;20080;-78
2022/03/13 04:17:50;;;;;;;31.30;10.65;;;0.10;62.10;;;;;;4172561;28;20033;-77
2022/03/13 04:19:50;;;;;;;31.23;11.90;;;0.10;62.10;;;;;;4170319;28;20535;-77
2022/03/13 04:21:51;;;;;;;27.85;12.18;;;0.10;61.70;;;;;;4153333;28;20030;-77
2022/03/13 04:23:52;;;;;;;24.65;10.95;;;0.10;61.60;;;;;;4169631;28;20140;-78
2022/03/13 04:25:52;;;;;;;27.05;11.50;;;0.10;61.40;;;;;;4156931;28;20175;-78
2022/03/13 04:27:54;;;;;;;26.00;10.77;;;0.10;61.40;;;;;;4169272;28;20034;-77
2022/03/13 04:29:55;;;;;;;30.23;11.75;;;0.10;61.40;;;;;;4149181;28;20026;-77
2022/03/13 04:31:55;;;;;;;25.90;11.10;;;0.10;61.50;;;;;;4156454;28;20029;-78
2022/03/13 04:33:57;;;;;;;25.73;10.70;;;0.10;61.30;;;;;;4170763;28;20033;-78
2022/03/13 04:36:00;;;;;;;25.33;11.27;;;0.10;61.10;;;;;;4171089;28;20032;-78
2022/03/13 04:38:01;;;;;;;28.25;10.77;;;0.10;61.00;;;;;;4153741;28;20053;-78
2022/03/13 04:40:02;;;;;;;27.50;10.88;;;0.10;60.70;;;;;;4171071;28;20040;-78
2022/03/13 04:42:07;;;;;;;26.25;11.30;;;0.10;60.50;;;;;;4152966;28;20064;-78
2022/03/13 04:44:08;;;;;;;27.05;11.23;;;0.10;60.30;;;;;;4155870;28;20390;-78
2022/03/13 04:46:08;;;;;;;28.00;11.07;;;0.10;60.10;;;;;;4157241;28;20029;-78
2022/03/13 04:48:09;;;;;;;24.63;10.20;;;0.10;59.90;;;;;;4123132;28;20154;-78
2022/03/13 04:50:10;;;;;;;28.17;10.32;;;0.10;59.80;;;;;;4157039;28;20447;-78
2022/03/13 04:52:11;;;;;;;23.58;10.38;;;0.10;59.60;;;;;;4158239;28;20064;-78
2022/03/13 04:54:12;;;;;;;25.08;10.73;;;0.10;59.40;;;;;;4139288;28;20092;-78
2022/03/13 04:56:14;;;;;;;23.77;10.55;;;0.10;59.20;;;;;;4141354;28;20022;-78
2022/03/13 04:58:14;;;;;;;29.63;11.07;;;0.20;59.00;;;;;;4168387;28;20733;-77
2022/03/13 05:00:15;;;;;;;24.95;9.95;;;0.20;58.80;;;;;;4156076;28;20107;-77
2022/03/13 05:02:16;;;;;;;26.92;10.43;;;0.20;58.70;;;;;;4167282;28;20447;-78
2022/03/13 05:04:16;;;;;;;27.40;11.02;;;0.20;58.50;;;;;;4160089;28;20041;-78
2022/03/13 05:06:17;;;;;;;25.67;10.40;;;0.20;58.40;;;;;;4146294;28;20443;-78
2022/03/13 05:08:18;;;;;;;25.50;9.35;;;0.20;58.20;;;;;;4142021;28;20030;-78
2022/03/13 05:10:19;;;;;;;25.58;11.07;;;0.30;58.60;;;;;;4175085;28;20260;-78
2022/03/13 05:12:23;;;;;;;28.25;10.45;;;0.30;57.80;;;;;;4138897;28;20096;-78
2022/03/13 05:14:24;;;;;;;22.67;9.88;;;0.30;57.50;;;;;;4140974;28;20021;-78
2022/03/13 05:16:24;;;;;;;27.25;9.85;;;0.30;57.60;;;;;;4159783;28;20064;-78
2022/03/13 05:18:25;;;;;;;20.98;9.63;;;0.20;57.50;;;;;;4169191;28;20215;-77
2022/03/13 05:20:26;;;;;;;26.65;10.13;;;0.30;57.50;;;;;;4140812;28;20445;-77
2022/03/13 05:22:27;;;;;;;24.42;10.15;;;0.30;57.40;;;;;;4144901;28;20507;-78
2022/03/13 05:24:27;;;;;;;31.42;10.55;;;0.20;57.40;;;;;;4159817;28;20034;-77
2022/03/13 05:26:28;;;;;;;25.27;9.05;;;0.30;57.40;;;;;;4158764;28;20458;-77
2022/03/13 05:28:29;;;;;;;22.30;9.95;;;0.20;57.40;;;;;;4155106;28;20092;-78
2022/03/13 05:30:29;;;;;;;26.30;9.65;;;0.20;57.40;;;;;;4174152;28;20029;-77
2022/03/13 05:32:30;;;;;;;26.30;10.77;;;0.30;57.40;;;;;;4167931;28;20021;-77
2022/03/13 05:34:31;;;;;;;25.25;10.15;;;0.20;57.40;;;;;;4140823;28;20090;-77
2022/03/13 05:36:32;;;;;;;25.98;10.45;;;0.20;57.60;;;;;;4168101;28;20033;-78
2022/03/13 05:38:34;;;;;;;21.90;10.35;;;0.30;57.90;;;;;;4157611;28;20503;-78
2022/03/13 05:40:36;;;;;;;24.08;10.77;;;0.20;58.20;;;;;;4173991;28;20041;-78
2022/03/13 05:42:36;;;;;;;24.95;11.52;;;0.20;58.60;;;;;;4160499;28;20029;-78
2022/03/13 05:44:37;;;;;;;30.60;10.98;;;0.30;59.00;;;;;;4172266;28;20097;-78
2022/03/13 05:46:38;;;;;;;28.48;10.63;;;0.30;59.40;;;;;;4174599;28;20031;-78
2022/03/13 05:48:39;;;;;;;27.30;11.32;;;0.30;59.80;;;;;;4174868;28;20061;-78
2022/03/13 05:50:40;;;;;;;24.15;10.95;;;0.30;60.10;;;;;;4125519;28;20081;-78
2022/03/13 05:52:41;;;;;;;27.35;11.65;;;0.30;60.60;;;;;;4157820;28;20053;-78
2022/03/13 05:54:42;;;;;;;27.70;12.27;;;0.30;61.00;;;;;;4145758;28;20121;-78
2022/03/13 05:56:43;;;;;;;39.70;12.27;;;0.30;61.50;;;;;;4178401;28;20025;-78
2022/03/13 05:58:44;;;;;;;31.75;11.35;;;0.30;62.00;;;;;;4155205;28;20083;-78
2022/03/13 06:00:58;;;;;;;40.45;13.00;;;0.40;62.10;;;;;;4173809;28;20041;-78
2022/03/13 06:03:00;;;;;;;29.75;12.70;;;0.40;62.50;;;;;;4160938;28;20022;-77
2022/03/13 06:05:00;;;;;;;30.27;11.93;;;0.40;62.30;;;;;;4147290;28;20056;-77
2022/03/13 06:07:04;;;;;;;32.42;12.38;;;0.40;62.60;;;;;;4161068;28;20037;-77
2022/03/13 06:09:05;;;;;;;36.80;11.52;;;0.50;62.60;;;;;;4175482;28;20098;-77
2022/03/13 06:11:08;;;;;;;31.23;11.85;;;0.50;62.80;;;;;;4140089;28;20034;-77
2022/03/13 06:13:09;;;;;;;26.70;11.77;;;0.50;62.80;;;;;;4153302;28;20026;-77
2022/03/13 06:15:11;;;;;;;25.58;10.88;;;0.50;62.90;;;;;;4173157;28;20465;-77
2022/03/13 06:17:12;;;;;;;27.42;11.73;;;0.50;62.70;;;;;;4141175;28;20081;-78
2022/03/13 06:19:13;;;;;;;29.25;12.15;;;0.60;62.70;;;;;;4178089;28;20329;-77
2022/03/13 06:21:14;;;;;;;30.50;12.52;;;0.60;62.70;;;;;;4144571;28;20046;-77
2022/03/13 06:23:16;;;;;;;28.80;11.80;;;0.60;62.70;;;;;;4144149;28;20026;-77
2022/03/13 06:25:17;;;;;;;32.95;10.38;;;0.70;62.80;;;;;;4190708;28;20037;-77
2022/03/13 06:27:18;;;;;;;32.25;11.57;;;0.70;62.70;;;;;;4175776;28;20025;-77
2022/03/13 06:29:20;;;;;;;25.27;11.35;;;0.70;62.50;;;;;;4142614;28;20041;-77
2022/03/13 06:31:20;;;;;;;29.73;11.55;;;0.80;62.50;;;;;;4173273;28;20052;-77
2022/03/13 06:33:21;;;;;;;25.15;11.23;;;0.80;62.30;;;;;;4141736;28;20105;-77
2022/03/13 06:35:22;;;;;;;25.00;11.65;;;0.90;62.20;;;;;;4160428;28;20128;-77
2022/03/13 06:37:23;;;;;;;28.70;11.73;;;0.90;62.00;;;;;;4159426;28;20034;-77
2022/03/13 06:39:24;;;;;;;27.20;11.35;;;0.90;61.80;;;;;;4149358;28;20055;-78
2022/03/13 06:41:26;;;;;;;27.95;12.32;;;1.00;61.60;;;;;;4144023;28;20399;-77
2022/03/13 06:43:27;;;;;;;27.05;11.27;;;1.00;61.40;;;;;;4161081;28;20025;-77
2022/03/13 06:45:30;;;;;;;;;;;1.10;61.20;;;;;;4174029;28;20029;-78
2022/03/13 06:47:30;;;;;;;27.40;11.73;;;1.10;61.00;;;;;;4160190;28;20333;-77
2022/03/13 06:49:32;;;;;;;25.38;11.05;;;1.20;60.80;;;;;;4141019;28;20080;-77
2022/03/13 06:51:33;;;;;;;22.30;10.00;;;1.20;60.60;;;;;;4160161;28;20025;-77
2022/03/13 06:53:36;;;;;;;28.25;11.55;;;1.30;60.30;;;;;;4142086;28;20025;-77
2022/03/13 06:55:37;;;;;;;27.30;11.70;;;1.30;60.10;;;;;;4142846;28;20022;-77
2022/03/13 06:57:38;;;;;;;26.40;10.52;;;1.40;59.80;;;;;;4144183;28;20030;-77
2022/03/13 06:59:38;;;;;;;23.27;10.65;;;1.40;60.30;;;;;;4151026;28;20036;-77
2022/03/13 07:01:39;;;;;;;23.95;10.88;;;1.50;59.40;;;;;;4156374;28;20061;-78
2022/03/13 07:03:40;;;;;;;25.20;10.25;;;1.60;59.00;;;;;;4156933;28;20100;-78
2022/03/13 07:05:41;;;;;;;23.20;10.80;;;1.60;58.80;;;;;;4153669;28;20065;-78
2022/03/13 07:07:41;;;;;;;23.33;10.30;;;1.60;58.30;;;;;;4155650;28;20046;-78
2022/03/13 07:09:42;;;;;;;24.77;10.75;;;1.70;58.10;;;;;;4142025;28;20021;-78
2022/03/13 07:11:45;;;;;;;31.30;10.57;;;1.80;58.00;;;;;;4159317;28;20083;-78
2022/03/13 07:13:46;;;;;;;24.63;10.07;;;1.90;57.80;;;;;;4141898;28;20034;-78
2022/03/13 07:15:48;;;;;;;19.75;9.65;;;1.90;57.60;;;;;;4137722;28;20036;-78
2022/03/13 07:17:48;;;;;;;24.70;10.27;;;2.00;57.20;;;;;;4183728;28;20445;-78
2022/03/13 07:19:49;;;;;;;24.63;9.55;;;2.00;57.00;;;;;;4149087;28;20022;-78
2022/03/13 07:21:50;;;;;;;21.25;8.93;;;2.10;56.80;;;;;;4153548;28;20067;-78
2022/03/13 07:23:51;;;;;;;25.00;9.63;;;2.10;56.40;;;;;;4128216;28;20503;-78
2022/03/13 07:25:52;;;;;;;22.27;8.95;;;2.20;56.20;;;;;;4153113;28;20034;-78
2022/03/13 07:27:52;;;;;;;22.92;8.77;;;2.20;55.80;;;;;;4140926;28;20033;-78
2022/03/13 07:29:53;;;;;;;18.85;9.02;;;2.30;55.60;;;;;;4152084;28;20026;-78
2022/03/13 07:31:56;;;;;;;22.52;9.10;;;2.40;55.50;;;;;;4171975;28;20043;-78
2022/03/13 07:34:02;;;;;;;22.60;8.82;;;2.40;55.20;;;;;;4148476;28;20112;-78
2022/03/13 07:36:03;;;;;;;20.83;8.88;;;2.50;55.00;;;;;;4152949;28;20029;-78
2022/03/13 07:38:08;;;;;;;21.90;8.57;;;2.50;54.60;;;;;;4168712;28;20033;-78
2022/03/13 07:40:09;;;;;;;26.33;9.02;;;2.60;54.50;;;;;;4140896;28;20503;-78
2022/03/13 07:42:10;;;;;;;21.15;8.70;;;2.60;54.30;;;;;;4174651;28;20098;-78
2022/03/13 07:44:11;;;;;;;19.85;8.52;;;2.70;54.10;;;;;;4156832;28;20044;-78
2022/03/13 07:46:14;;;;;;;22.48;8.40;;;2.80;53.80;;;;;;4140974;28;20038;-78
2022/03/13 07:48:15;;;;;;;30.20;9.80;;;2.90;53.20;;;;;;4153806;28;20033;-78
2022/03/13 07:50:16;;;;;;;20.70;8.77;;;2.90;53.00;;;;;;4156707;28;20366;-78
2022/03/13 07:52:16;;;;;;;20.42;9.00;;;2.90;52.60;;;;;;4156330;28;20029;-78
2022/03/13 07:54:20;;;;;;;21.95;8.73;;;3.00;51.90;;;;;;4142714;28;20069;-78
2022/03/13 07:56:22;;;;;;;20.80;8.77;;;3.00;51.60;;;;;;4126175;28;20543;-78
2022/03/13 07:58:24;;;;;;;17.85;8.40;;;3.10;51.60;;;;;;4168934;28;20700;-78
2022/03/13 08:00:25;;;;;;;20.27;8.15;;;3.10;51.40;;;;;;4153855;28;20045;-78
2022/03/13 08:02:26;;;;;;;23.38;8.25;;;3.20;50.70;;;;;;4151952;28;20037;-78
2022/03/13 08:04:28;;;;;;;19.80;8.75;;;3.20;50.40;;;;;;4127873;28;20062;-78
2022/03/13 08:06:28;;;;;;;23.83;8.63;;;3.20;50.30;;;;;;4109727;28;20483;-78
2022/03/13 08:08:29;;;;;;;20.23;8.13;;;3.30;50.30;;;;;;4152287;28;20426;-78
2022/03/13 08:10:30;;;;;;;23.95;8.10;;;3.40;50.50;;;;;;4152836;28;20025;-78
2022/03/13 08:12:31;;;;;;;20.10;8.23;;;3.40;50.10;;;;;;4155688;28;20034;-78
2022/03/13 08:14:32;;;;;;;19.27;7.60;;;3.50;49.60;;;;;;4165993;28;20028;-78
2022/03/13 08:16:34;;;;;;;23.25;8.48;;;3.50;50.10;;;;;;4142539;28;20050;-78
2022/03/13 08:18:36;;;;;;;23.80;8.50;;;3.60;50.00;;;;;;4170977;28;20025;-78
2022/03/13 08:20:37;;;;;;;16.70;7.28;;;3.60;49.60;;;;;;4141064;28;20088;-78
2022/03/13 08:22:38;;;;;;;15.73;7.38;;;3.60;49.70;;;;;;4142032;28;20487;-78
2022/03/13 08:24:40;;;;;;;19.27;8.38;;;3.70;49.80;;;;;;4155842;28;20044;-78
2022/03/13 08:26:41;;;;;;;20.17;8.32;;;3.80;48.90;;;;;;4144743;28;20032;-78
2022/03/13 08:28:42;;;;;;;19.73;8.55;;;3.90;49.30;;;;;;4152401;28;20095;-78
2022/03/13 08:30:44;;;;;;;24.23;8.33;;;3.90;48.90;;;;;;4133835;28;20073;-78
2022/03/13 08:32:45;;;;;;;18.27;8.30;;;4.00;48.40;;;;;;4152323;28;20041;-78
2022/03/13 08:34:48;;;;;;;16.02;7.53;;;4.00;48.20;;;;;;4158119;28;20030;-78
2022/03/13 08:36:51;;;;;;;18.75;7.90;;;4.10;48.00;;;;;;4136583;28;20113;-78
2022/03/13 08:38:52;;;;;;;20.55;7.20;;;4.20;47.20;;;;;;4158557;28;20030;-78
2022/03/13 08:40:53;;;;;;;18.25;7.40;;;4.30;46.80;;;;;;4154768;28;20462;-78
2022/03/13 08:42:55;;;;;;;16.98;7.53;;;4.30;45.80;;;;;;4158119;28;20039;-78
2022/03/13 08:44:55;;;;;;;17.52;7.45;;;4.30;46.50;;;;;;4149404;28;20058;-78
2022/03/13 08:46:56;;;;;;;15.50;7.47;;;4.40;45.90;;;;;;4152896;28;20482;-78
2022/03/13 08:48:58;;;;;;;20.58;7.65;;;4.60;45.60;;;;;;4169786;28;20124;-78
2022/03/13 08:50:58;;;;;;;18.52;7.93;;;4.50;45.50;;;;;;4138175;28;20034;-78
2022/03/13 08:53:00;;;;;;;17.60;7.22;;;4.50;45.20;;;;;;4156435;28;20046;-78
2022/03/13 08:55:01;;;;;;;14.98;7.25;;;4.60;45.60;;;;;;4151041;28;20108;-78
2022/03/13 08:57:02;;;;;;;17.48;7.32;;;4.60;45.60;;;;;;4154200;28;20033;-78
2022/03/13 08:59:02;;;;;;;21.45;8.35;;;4.70;45.00;;;;;;4154786;28;20461;-78
2022/03/13 09:01:03;;;;;;;13.77;6.80;;;4.80;45.80;;;;;;4141858;28;20517;-78
2022/03/13 09:03:05;;;;;;;16.08;7.60;;;4.80;44.50;;;;;;4140057;28;20026;-78
2022/03/13 09:05:06;;;;;;;16.20;7.03;;;4.90;44.60;;;;;;4131506;28;20030;-78
2022/03/13 09:07:09;;;;;;;19.42;7.47;;;4.90;44.70;;;;;;4170302;28;20485;-78
2022/03/13 09:09:10;;;;;;;;;;;4.90;44.50;;;;;;4133592;28;20065;-78
2022/03/13 09:11:11;;;;;;;19.13;7.50;;;5.00;44.80;;;;;;4171347;28;19916;-78
2022/03/13 09:13:13;;;;;;;21.08;7.22;;;5.10;44.60;;;;;;4151481;28;20075;-78
2022/03/13 09:15:13;;;;;;;15.95;7.18;;;5.10;44.50;;;;;;4139351;28;20368;-78
2022/03/13 09:17:15;;;;;;;19.23;7.63;;;5.20;43.90;;;;;;4134505;28;20026;-78
2022/03/13 09:19:16;;;;;;;17.05;7.82;;;5.20;43.30;;;;;;4169394;28;20353;-78
2022/03/13 09:21:17;;;;;;;13.45;6.63;;;5.30;42.70;;;;;;4154914;28;20232;-78
2022/03/13 09:23:17;;;;;;;15.15;7.43;;;5.30;42.20;;;;;;4154042;28;20026;-78
2022/03/13 09:25:18;;;;;;;18.63;8.00;;;5.30;43.00;;;;;;4189022;28;20032;-78
2022/03/13 09:27:21;;;;;;;16.10;7.47;;;5.30;43.00;;;;;;4168597;28;20033;-79
2022/03/13 09:29:22;;;;;;;15.35;7.00;;;5.40;42.90;;;;;;4171052;28;20098;-78
2022/03/13 09:31:23;;;;;;;19.45;7.95;;;5.40;42.90;;;;;;4156468;28;20029;-78
2022/03/13 09:33:24;;;;;;;19.95;7.72;;;5.40;43.30;;;;;;4171162;28;20032;-78
2022/03/13 09:35:26;;;;;;;14.82;7.53;;;5.50;43.30;;;;;;4172361;28;20428;-77
2022/03/13 09:37:27;;;;;;;16.05;8.00;;;5.60;42.90;;;;;;4168913;28;20072;-77
2022/03/13 09:39:29;;;;;;;18.85;7.38;;;5.60;42.80;;;;;;4134210;28;20082;-78
2022/03/13 09:41:30;;;;;;;15.87;7.80;;;5.70;42.80;;;;;;4161574;28;20045;-78
2022/03/13 09:43:31;;;;;;;19.38;7.97;;;5.70;43.30;;;;;;4145084;28;20299;-78
2022/03/13 09:45:31;;;;;;;16.00;7.47;;;5.70;42.90;;;;;;4148707;28;20486;-77
2022/03/13 09:47:32;;;;;;;16.25;8.07;;;5.70;43.00;;;;;;4136043;28;20029;-78
2022/03/13 09:49:34;;;;;;;17.42;8.02;;;5.80;43.00;;;;;;4156738;28;20026;-78
2022/03/13 09:51:35;;;;;;;19.83;8.00;;;5.80;42.80;;;;;;4167722;28;20541;-78
2022/03/13 09:53:36;;;;;;;23.13;8.50;;;5.70;43.10;;;;;;4152309;28;20172;-78
2022/03/13 09:55:38;;;;;;;23.63;8.77;;;5.80;43.70;;;;;;4180387;28;20040;-78
2022/03/13 09:57:41;;;;;;;27.13;9.00;;;5.90;44.60;;;;;;4152362;28;20029;-78
2022/03/13 09:59:46;;;;;;;20.08;9.43;;;5.80;44.90;;;;;;4169537;28;20664;-77
2022/03/13 10:01:46;;;;;;;23.83;8.98;;;5.90;44.90;;;;;;4154456;28;20041;-78
2022/03/13 10:03:47;;;;;;;20.67;9.65;;;5.90;45.30;;;;;;4134532;28;20061;-78
2022/03/13 10:05:48;;;;;;;20.67;8.82;;;5.90;45.70;;;;;;4150291;28;20037;-78
2022/03/13 10:07:57;;;;;;;23.83;9.43;;;5.90;46.00;;;;;;4133558;28;20510;-78
2022/03/13 10:10:10;;;;;;;19.35;8.70;;;5.90;46.20;;;;;;4168807;28;20028;-78
2022/03/13 10:12:14;;;;;;;21.98;9.50;;;5.90;46.50;;;;;;4137271;28;20570;-78
2022/03/13 10:14:15;;;;;;;19.25;8.88;;;5.90;46.10;;;;;;4168479;28;20033;-78
2022/03/13 10:16:35;;;;;;;19.77;9.00;;;6.00;45.80;;;;;;4152482;28;20033;-78
2022/03/13 10:18:35;;;;;;;27.70;9.43;;;6.00;45.70;;;;;;4168862;28;20029;-78
2022/03/13 10:20:39;;;;;;;22.52;9.07;;;5.90;45.60;;;;;;4146156;28;20132;-78
2022/03/13 10:22:39;;;;;;;20.42;8.30;;;5.90;45.50;;;;;;4165529;28;20064;-78
2022/03/13 10:24:46;;;;;;;21.20;8.85;;;5.90;45.40;;;;;;4150372;28;20033;-78
2022/03/13 10:26:47;;;;;;;23.13;9.63;;;5.90;45.70;;;;;;4151439;28;20033;-77
2022/03/13 10:28:47;;;;;;;22.63;9.82;;;5.90;45.40;;;;;;4150645;28;20084;-78
2022/03/13 10:31:13;;;;;;;25.15;10.07;;;5.90;45.20;;;;;;4153267;28;20038;-77